sensor_id;sensor_type;location;lat;lon;timestamp;P1;P2;P0
77239;PMS7003;66258;53.170;-2.240;2023-06-10T00:00:39;746.00;743.50;712.25
77239;PMS7003;66258;53.170;-2.240;2023-06-10T00:03:05;66.20;55.00;47.80
77239;PMS7003;66258;53.170;-2.240;2023-06-10T00:05:32;28.25;24.50;18.75
77239;PMS7003;66258;53.170;-2.240;2023-06-10T00:08:01;240.00;237.00;215.60
77239;PMS7003;66258;53.170;-2.240;2023-06-10T00:10:28;71.80;60.60;51.60
77239;PMS7003;66258;53.170;-2.240;2023-06-10T00:12:55;71.25;61.75;51.25
77239;PMS7003;66258;53.170;-2.240;2023-06-10T00:15:21;73.60;65.00;59.00
77239;PMS7003;66258;53.170;-2.240;2023-06-10T00:17:48;286.60;280.40;268.00
77239;PMS7003;66258;53.170;-2.240;2023-06-10T00:20:15;77.20;70.00;49.00
77239;PMS7003;66258;53.170;-2.240;2023-06-10T00:22:42;49.25;41.75;32.00
77239;PMS7003;66258;53.170;-2.240;2023-06-10T00:25:10;44.25;39.75;30.50
77239;PMS7003;66258;53.170;-2.240;2023-06-10T00:27:37;15.33;13.33;8.00
77239;PMS7003;66258;53.170;-2.240;2023-06-10T00:30:05;83.25;79.00;71.75
77239;PMS7003;66258;53.170;-2.240;2023-06-10T00:32:32;69.00;60.20;43.80
77239;PMS7003;66258;53.170;-2.240;2023-06-10T00:34:59;75.60;66.20;57.60
77239;PMS7003;66258;53.170;-2.240;2023-06-10T00:37:26;66.80;56.00;46.40
77239;PMS7003;66258;53.170;-2.240;2023-06-10T00:39:53;75.50;65.25;58.75
77239;PMS7003;66258;53.170;-2.240;2023-06-10T00:42:21;80.00;72.40;64.00
77239;PMS7003;66258;53.170;-2.240;2023-06-10T00:44:48;67.00;54.67;47.00
77239;PMS7003;66258;53.170;-2.240;2023-06-10T00:47:15;68.25;58.25;51.25
77239;PMS7003;66258;53.170;-2.240;2023-06-10T00:49:42;77.80;69.80;58.80
77239;PMS7003;66258;53.170;-2.240;2023-06-10T00:52:09;2684.50;2684.50;2672.50
77239;PMS7003;66258;53.170;-2.240;2023-06-10T00:54:37;3572.40;3572.40;3572.00
77239;PMS7003;66258;53.170;-2.240;2023-06-10T00:57:04;307.20;304.80;298.00
77239;PMS7003;66258;53.170;-2.240;2023-06-10T00:59:33;81.80;71.80;67.80
77239;PMS7003;66258;53.170;-2.240;2023-06-10T01:02:00;87.40;82.20;74.60
77239;PMS7003;66258;53.170;-2.240;2023-06-10T01:04:27;79.80;72.60;63.40
77239;PMS7003;66258;53.170;-2.240;2023-06-10T01:06:54;94.60;91.20;83.80
77239;PMS7003;66258;53.170;-2.240;2023-06-10T01:09:30;92.60;88.60;82.40
77239;PMS7003;66258;53.170;-2.240;2023-06-10T01:12:05;93.60;92.20;83.60
77239;PMS7003;66258;53.170;-2.240;2023-06-10T01:14:39;324.60;321.60;291.20
77239;PMS7003;66258;53.170;-2.240;2023-06-10T01:17:06;3440.20;3440.20;3437.60
77239;PMS7003;66258;53.170;-2.240;2023-06-10T01:19:34;2281.00;2279.75;2249.00
77239;PMS7003;66258;53.170;-2.240;2023-06-10T01:22:02;554.25;553.75;538.00
77239;PMS7003;66258;53.170;-2.240;2023-06-10T01:24:29;477.60;477.00;439.40
77239;PMS7003;66258;53.170;-2.240;2023-06-10T01:26:56;3684.20;3684.20;3684.20
77239;PMS7003;66258;53.170;-2.240;2023-06-10T01:29:28;2223.60;2221.40;2174.60
77239;PMS7003;66258;53.170;-2.240;2023-06-10T01:32:00;502.80;501.60;429.60
77239;PMS7003;66258;53.170;-2.240;2023-06-10T01:34:32;1265.20;1263.40;1214.60
77239;PMS7003;66258;53.170;-2.240;2023-06-10T01:37:00;1197.50;1197.50;1148.75
77239;PMS7003;66258;53.170;-2.240;2023-06-10T01:39:28;2609.50;2609.00;2604.25
77239;PMS7003;66258;53.170;-2.240;2023-06-10T01:41:57;198.25;198.25;176.25
77239;PMS7003;66258;53.170;-2.240;2023-06-10T01:44:24;3081.75;3079.25;3058.25
77239;PMS7003;66258;53.170;-2.240;2023-06-10T01:46:51;834.00;834.00;807.40
77239;PMS7003;66258;53.170;-2.240;2023-06-10T01:49:18;2278.80;2278.80;2259.60
77239;PMS7003;66258;53.170;-2.240;2023-06-10T01:51:44;3508.40;3508.40;3507.60
77239;PMS7003;66258;53.170;-2.240;2023-06-10T01:54:13;1646.50;1646.50;1609.75
77239;PMS7003;66258;53.170;-2.240;2023-06-10T01:56:39;3738.20;3738.20;3738.20
77239;PMS7003;66258;53.170;-2.240;2023-06-10T01:59:06;1931.75;1929.75;1908.50
77239;PMS7003;66258;53.170;-2.240;2023-06-10T02:01:33;2638.40;2637.20;2615.80
77239;PMS7003;66258;53.170;-2.240;2023-06-10T02:03:59;1925.40;1924.60;1899.20
77239;PMS7003;66258;53.170;-2.240;2023-06-10T02:06:26;3532.50;3532.50;3530.00
77239;PMS7003;66258;53.170;-2.240;2023-06-10T02:08:53;215.00;214.00;177.25
77239;PMS7003;66258;53.170;-2.240;2023-06-10T02:11:21;1782.00;1779.80;1738.80
77239;PMS7003;66258;53.170;-2.240;2023-06-10T02:13:48;111.40;111.40;87.40
77239;PMS7003;66258;53.170;-2.240;2023-06-10T02:16:15;102.80;100.40;88.60
77239;PMS7003;66258;53.170;-2.240;2023-06-10T02:18:41;107.60;105.60;86.60
77239;PMS7003;66258;53.170;-2.240;2023-06-10T02:21:08;30.00;27.25;22.75
77239;PMS7003;66258;53.170;-2.240;2023-06-10T02:23:35;20.75;18.50;15.25
77239;PMS7003;66258;53.170;-2.240;2023-06-10T02:26:02;42.00;36.50;29.25
77239;PMS7003;66258;53.170;-2.240;2023-06-10T02:28:30;18.00;14.75;9.50
77239;PMS7003;66258;53.170;-2.240;2023-06-10T02:30:57;14.75;12.75;8.50
77239;PMS7003;66258;53.170;-2.240;2023-06-10T02:33:24;48.50;42.25;32.75
77239;PMS7003;66258;53.170;-2.240;2023-06-10T02:35:50;24.75;21.75;14.50
77239;PMS7003;66258;53.170;-2.240;2023-06-10T02:38:17;27.50;21.25;16.75
77239;PMS7003;66258;53.170;-2.240;2023-06-10T02:40:44;33.50;28.75;24.25
77239;PMS7003;66258;53.170;-2.240;2023-06-10T02:43:11;42.25;31.50;24.50
77239;PMS7003;66258;53.170;-2.240;2023-06-10T02:45:39;28.00;25.25;17.75
77239;PMS7003;66258;53.170;-2.240;2023-06-10T02:48:05;32.75;24.00;18.75
77239;PMS7003;66258;53.170;-2.240;2023-06-10T02:50:33;21.75;20.50;15.75
77239;PMS7003;66258;53.170;-2.240;2023-06-10T02:53:00;22.75;20.75;17.25
77239;PMS7003;66258;53.170;-2.240;2023-06-10T02:55:26;28.40;24.00;18.80
77239;PMS7003;66258;53.170;-2.240;2023-06-10T02:57:53;84.75;77.50;68.00
77239;PMS7003;66258;53.170;-2.240;2023-06-10T03:00:20;575.25;572.50;545.50
77239;PMS7003;66258;53.170;-2.240;2023-06-10T03:02:48;489.50;488.00;443.00
77239;PMS7003;66258;53.170;-2.240;2023-06-10T03:05:15;1556.00;1553.25;1538.75
77239;PMS7003;66258;53.170;-2.240;2023-06-10T03:07:42;2392.75;2390.00;2362.00
77239;PMS7003;66258;53.170;-2.240;2023-06-10T03:10:08;857.80;854.60;840.80
77239;PMS7003;66258;53.170;-2.240;2023-06-10T03:12:36;3035.60;3035.60;3028.60
77239;PMS7003;66258;53.170;-2.240;2023-06-10T03:15:03;162.80;162.80;161.00
77239;PMS7003;66258;53.170;-2.240;2023-06-10T03:17:31;3359.00;3357.80;3349.80
77239;PMS7003;66258;53.170;-2.240;2023-06-10T03:19:59;2312.20;2312.20;2281.80
77239;PMS7003;66258;53.170;-2.240;2023-06-10T03:22:26;125.60;122.40;114.60
77239;PMS7003;66258;53.170;-2.240;2023-06-10T03:24:54;1229.80;1228.00;1192.40
77239;PMS7003;66258;53.170;-2.240;2023-06-10T03:27:21;1561.20;1560.80;1533.00
77239;PMS7003;66258;53.170;-2.240;2023-06-10T03:29:47;1324.25;1321.25;1293.25
77239;PMS7003;66258;53.170;-2.240;2023-06-10T03:32:14;2539.75;2537.75;2490.75
77239;PMS7003;66258;53.170;-2.240;2023-06-10T03:34:41;2334.40;2334.40;2306.60
77239;PMS7003;66258;53.170;-2.240;2023-06-10T03:37:09;1959.40;1958.00;1930.20
77239;PMS7003;66258;53.170;-2.240;2023-06-10T03:39:35;114.00;113.25;98.00
77239;PMS7003;66258;53.170;-2.240;2023-06-10T03:42:02;3031.60;3031.60;3030.60
77239;PMS7003;66258;53.170;-2.240;2023-06-10T03:44:29;112.00;111.00;104.00
77239;PMS7003;66258;53.170;-2.240;2023-06-10T03:46:56;3737.80;3737.80;3737.40
77239;PMS7003;66258;53.170;-2.240;2023-06-10T03:49:23;110.40;109.40;105.00
77239;PMS7003;66258;53.170;-2.240;2023-06-10T03:51:49;110.80;109.20;101.40
77239;PMS7003;66258;53.170;-2.240;2023-06-10T03:54:18;102.40;101.40;94.80
77239;PMS7003;66258;53.170;-2.240;2023-06-10T03:56:45;116.25;114.25;107.25
77239;PMS7003;66258;53.170;-2.240;2023-06-10T03:59:11;3763.25;3763.25;3763.25
77239;PMS7003;66258;53.170;-2.240;2023-06-10T04:01:38;3511.50;3511.25;3499.25
77239;PMS7003;66258;53.170;-2.240;2023-06-10T04:04:05;108.40;107.60;94.80
77239;PMS7003;66258;53.170;-2.240;2023-06-10T04:06:31;119.00;118.00;90.25
77239;PMS7003;66258;53.170;-2.240;2023-06-10T04:08:58;1126.75;1124.50;1091.75
77239;PMS7003;66258;53.170;-2.240;2023-06-10T04:11:26;109.40;107.40;100.80
77239;PMS7003;66258;53.170;-2.240;2023-06-10T04:13:53;1397.75;1397.50;1375.25
77239;PMS7003;66258;53.170;-2.240;2023-06-10T04:16:20;472.40;472.40;464.20
77239;PMS7003;66258;53.170;-2.240;2023-06-10T04:18:47;3486.60;3486.60;3480.00
77239;PMS7003;66258;53.170;-2.240;2023-06-10T04:21:13;3775.00;3775.00;3775.00
77239;PMS7003;66258;53.170;-2.240;2023-06-10T04:23:40;2307.00;2305.25;2268.75
77239;PMS7003;66258;53.170;-2.240;2023-06-10T04:26:07;2678.80;2678.00;2673.00
77239;PMS7003;66258;53.170;-2.240;2023-06-10T04:28:35;2297.50;2296.75;2281.00
77239;PMS7003;66258;53.170;-2.240;2023-06-10T04:31:02;165.00;162.00;141.00
77239;PMS7003;66258;53.170;-2.240;2023-06-10T04:33:28;147.25;147.25;142.25
77239;PMS7003;66258;53.170;-2.240;2023-06-10T04:35:55;3660.25;3659.75;3655.00
77239;PMS7003;66258;53.170;-2.240;2023-06-10T04:38:22;104.80;103.20;99.60
77239;PMS7003;66258;53.170;-2.240;2023-06-10T04:40:48;3020.00;3018.80;3002.60
77239;PMS7003;66258;53.170;-2.240;2023-06-10T04:43:15;89.40;83.00;75.80
77239;PMS7003;66258;53.170;-2.240;2023-06-10T04:45:43;114.20;113.40;77.80
77239;PMS7003;66258;53.170;-2.240;2023-06-10T04:48:10;69.80;58.40;51.20
77239;PMS7003;66258;53.170;-2.240;2023-06-10T04:50:37;3676.20;3676.20;3676.20
77239;PMS7003;66258;53.170;-2.240;2023-06-10T04:53:04;3338.40;3338.40;3326.60
77239;PMS7003;66258;53.170;-2.240;2023-06-10T04:55:31;708.40;707.00;665.00
77239;PMS7003;66258;53.170;-2.240;2023-06-10T04:57:58;2942.40;2942.40;2926.60
77239;PMS7003;66258;53.170;-2.240;2023-06-10T05:00:24;3717.25;3717.25;3717.25
77239;PMS7003;66258;53.170;-2.240;2023-06-10T05:02:53;3687.25;3687.25;3687.25
77239;PMS7003;66258;53.170;-2.240;2023-06-10T05:05:20;2930.80;2929.60;2913.60
77239;PMS7003;66258;53.170;-2.240;2023-06-10T05:07:46;3705.00;3705.00;3705.00
77239;PMS7003;66258;53.170;-2.240;2023-06-10T05:10:14;3682.60;3682.60;3682.60
77239;PMS7003;66258;53.170;-2.240;2023-06-10T05:12:40;3716.40;3716.40;3716.40
77239;PMS7003;66258;53.170;-2.240;2023-06-10T05:15:08;3725.20;3725.20;3725.20
77239;PMS7003;66258;53.170;-2.240;2023-06-10T05:17:35;3677.80;3677.80;3677.80
77239;PMS7003;66258;53.170;-2.240;2023-06-10T05:20:04;2649.00;2647.75;2617.00
77239;PMS7003;66258;53.170;-2.240;2023-06-10T05:22:31;3229.25;3227.00;3218.25
77239;PMS7003;66258;53.170;-2.240;2023-06-10T05:24:58;1520.20;1518.80;1481.40
77239;PMS7003;66258;53.170;-2.240;2023-06-10T05:27:24;3439.25;3439.00;3435.00
77239;PMS7003;66258;53.170;-2.240;2023-06-10T05:29:51;1935.00;1934.25;1908.25
77239;PMS7003;66258;53.170;-2.240;2023-06-10T05:32:18;959.40;957.40;918.60
77239;PMS7003;66258;53.170;-2.240;2023-06-10T05:34:44;2169.40;2169.40;2160.00
77239;PMS7003;66258;53.170;-2.240;2023-06-10T05:37:13;1160.60;1158.20;1128.20
77239;PMS7003;66258;53.170;-2.240;2023-06-10T05:39:40;3550.00;3550.00;3550.00
77239;PMS7003;66258;53.170;-2.240;2023-06-10T05:42:08;2283.00;2283.00;2255.50
77239;PMS7003;66258;53.170;-2.240;2023-06-10T05:44:34;262.00;260.40;229.20
77239;PMS7003;66258;53.170;-2.240;2023-06-10T05:47:01;2170.80;2170.00;2142.20
77239;PMS7003;66258;53.170;-2.240;2023-06-10T05:49:28;296.00;295.25;255.50
77239;PMS7003;66258;53.170;-2.240;2023-06-10T05:51:55;1555.50;1553.50;1539.75
77239;PMS7003;66258;53.170;-2.240;2023-06-10T05:54:23;338.80;337.20;310.20
77239;PMS7003;66258;53.170;-2.240;2023-06-10T05:56:49;3153.25;3153.25;3146.25
77239;PMS7003;66258;53.170;-2.240;2023-06-10T05:59:16;159.20;157.20;144.40
77239;PMS7003;66258;53.170;-2.240;2023-06-10T06:01:44;3038.25;3038.25;3020.75
77239;PMS7003;66258;53.170;-2.240;2023-06-10T06:04:11;3515.80;3515.80;3515.80
77239;PMS7003;66258;53.170;-2.240;2023-06-10T06:06:38;2903.40;2902.60;2876.60
77239;PMS7003;66258;53.170;-2.240;2023-06-10T06:09:05;2394.00;2393.50;2353.75
77239;PMS7003;66258;53.170;-2.240;2023-06-10T06:11:33;3143.40;3143.00;3126.60
77239;PMS7003;66258;53.170;-2.240;2023-06-10T06:14:00;3493.80;3493.80;3493.80
77239;PMS7003;66258;53.170;-2.240;2023-06-10T06:16:27;2935.20;2927.80;2922.60
77239;PMS7003;66258;53.170;-2.240;2023-06-10T06:18:54;2872.75;2871.75;2856.00
77239;PMS7003;66258;53.170;-2.240;2023-06-10T06:21:20;3445.00;3445.00;3445.00
77239;PMS7003;66258;53.170;-2.240;2023-06-10T06:23:47;2723.60;2723.60;2702.60
77239;PMS7003;66258;53.170;-2.240;2023-06-10T06:26:14;3169.40;3168.60;3158.40
77239;PMS7003;66258;53.170;-2.240;2023-06-10T06:28:42;3043.20;3042.60;3030.00
77239;PMS7003;66258;53.170;-2.240;2023-06-10T06:31:09;3438.20;3438.20;3438.20
77239;PMS7003;66258;53.170;-2.240;2023-06-10T06:33:36;2990.50;2989.25;2980.50
77239;PMS7003;66258;53.170;-2.240;2023-06-10T06:36:03;2714.20;2713.40;2685.80
77239;PMS7003;66258;53.170;-2.240;2023-06-10T06:38:30;2694.60;2691.20;2674.00
77239;PMS7003;66258;53.170;-2.240;2023-06-10T06:40:56;2092.50;2091.50;2063.75
77239;PMS7003;66258;53.170;-2.240;2023-06-10T06:43:23;2343.75;2342.75;2311.00
77239;PMS7003;66258;53.170;-2.240;2023-06-10T06:45:51;3167.00;3165.40;3155.40
77239;PMS7003;66258;53.170;-2.240;2023-06-10T06:48:18;2208.00;2205.00;2164.25
77239;PMS7003;66258;53.170;-2.240;2023-06-10T06:50:45;3463.75;3463.75;3463.75
77239;PMS7003;66258;53.170;-2.240;2023-06-10T06:53:11;2778.75;2777.50;2754.50
77239;PMS7003;66258;53.170;-2.240;2023-06-10T06:55:38;2859.60;2855.40;2835.80
77239;PMS7003;66258;53.170;-2.240;2023-06-10T06:58:05;3474.50;3474.50;3474.50
77239;PMS7003;66258;53.170;-2.240;2023-06-10T07:00:31;2963.20;2961.80;2938.20
77239;PMS7003;66258;53.170;-2.240;2023-06-10T07:03:00;3138.40;3138.40;3128.60
77239;PMS7003;66258;53.170;-2.240;2023-06-10T07:05:27;3018.75;3018.25;3005.25
77239;PMS7003;66258;53.170;-2.240;2023-06-10T07:07:54;2446.00;2443.60;2405.40
77239;PMS7003;66258;53.170;-2.240;2023-06-10T07:10:20;2167.60;2163.60;2127.20
77239;PMS7003;66258;53.170;-2.240;2023-06-10T07:12:47;2944.60;2944.20;2936.40
77239;PMS7003;66258;53.170;-2.240;2023-06-10T07:15:14;2794.20;2788.00;2766.40
77239;PMS7003;66258;53.170;-2.240;2023-06-10T07:17:41;1754.60;1754.00;1716.00
77239;PMS7003;66258;53.170;-2.240;2023-06-10T07:20:10;2969.80;2969.80;2959.60
77239;PMS7003;66258;53.170;-2.240;2023-06-10T07:22:38;2714.40;2713.00;2688.40
77239;PMS7003;66258;53.170;-2.240;2023-06-10T07:25:05;3360.75;3360.75;3360.75
77239;PMS7003;66258;53.170;-2.240;2023-06-10T07:27:32;2445.00;2445.00;2414.60
77239;PMS7003;66258;53.170;-2.240;2023-06-10T07:29:59;2986.80;2985.80;2985.80
77239;PMS7003;66258;53.170;-2.240;2023-06-10T07:32:25;3334.20;3334.20;3334.20
77239;PMS7003;66258;53.170;-2.240;2023-06-10T07:34:52;3333.00;3333.00;3333.00
77239;PMS7003;66258;53.170;-2.240;2023-06-10T07:37:20;3310.00;3310.00;3310.00
77239;PMS7003;66258;53.170;-2.240;2023-06-10T07:39:47;3327.75;3327.75;3327.75
77239;PMS7003;66258;53.170;-2.240;2023-06-10T07:42:15;3236.75;3236.75;3234.50
77239;PMS7003;66258;53.170;-2.240;2023-06-10T07:44:42;2653.80;2653.80;2636.80
77239;PMS7003;66258;53.170;-2.240;2023-06-10T07:47:09;2537.20;2537.00;2507.00
77239;PMS7003;66258;53.170;-2.240;2023-06-10T07:49:36;2327.60;2327.00;2304.00
77239;PMS7003;66258;53.170;-2.240;2023-06-10T07:52:02;3066.00;3065.60;3058.60
77239;PMS7003;66258;53.170;-2.240;2023-06-10T07:54:31;2890.80;2890.80;2877.00
77239;PMS7003;66258;53.170;-2.240;2023-06-10T07:56:58;3097.80;3097.20;3089.40
77239;PMS7003;66258;53.170;-2.240;2023-06-10T07:59:24;3145.50;3145.25;3142.25
77239;PMS7003;66258;53.170;-2.240;2023-06-10T08:01:51;2716.00;2713.60;2681.60
77239;PMS7003;66258;53.170;-2.240;2023-06-10T08:04:20;3193.50;3193.25;3190.00
77239;PMS7003;66258;53.170;-2.240;2023-06-10T08:06:47;2318.80;2317.40;2286.20
77239;PMS7003;66258;53.170;-2.240;2023-06-10T08:09:14;84.00;84.00;78.80
77239;PMS7003;66258;53.170;-2.240;2023-06-10T08:11:48;338.60;337.00;318.20
77239;PMS7003;66258;53.170;-2.240;2023-06-10T08:14:15;86.60;85.80;76.40
77239;PMS7003;66258;53.170;-2.240;2023-06-10T08:16:43;86.25;86.25;78.00
77239;PMS7003;66258;53.170;-2.240;2023-06-10T08:19:10;177.25;174.50;155.25
77239;PMS7003;66258;53.170;-2.240;2023-06-10T08:21:36;85.00;85.00;80.75
77239;PMS7003;66258;53.170;-2.240;2023-06-10T08:24:04;978.75;977.75;936.50
77239;PMS7003;66258;53.170;-2.240;2023-06-10T08:26:31;80.40;80.20;69.20
77239;PMS7003;66258;53.170;-2.240;2023-06-10T08:28:59;66.00;56.00;49.50
77239;PMS7003;66258;53.170;-2.240;2023-06-10T08:31:25;311.80;309.80;299.60
77239;PMS7003;66258;53.170;-2.240;2023-06-10T08:33:53;409.25;409.25;397.00
77239;PMS7003;66258;53.170;-2.240;2023-06-10T08:36:20;76.00;74.25;69.00
77239;PMS7003;66258;53.170;-2.240;2023-06-10T08:38:47;82.60;82.60;77.20
77239;PMS7003;66258;53.170;-2.240;2023-06-10T08:41:16;87.00;87.00;81.00
77239;PMS7003;66258;53.170;-2.240;2023-06-10T08:43:45;74.75;71.00;63.75
77239;PMS7003;66258;53.170;-2.240;2023-06-10T08:46:19;54.50;42.75;33.00
77239;PMS7003;66258;53.170;-2.240;2023-06-10T08:48:46;67.00;58.00;56.00
77239;PMS7003;66258;53.170;-2.240;2023-06-10T08:51:18;38.00;32.40;24.00
77239;PMS7003;66258;53.170;-2.240;2023-06-10T08:53:48;36.50;33.25;24.50
77239;PMS7003;66258;53.170;-2.240;2023-06-10T08:56:27;57.00;46.75;38.50
77239;PMS7003;66258;53.170;-2.240;2023-06-10T08:58:55;43.00;37.25;29.25
77239;PMS7003;66258;53.170;-2.240;2023-06-10T09:01:27;52.40;44.00;35.20
77239;PMS7003;66258;53.170;-2.240;2023-06-10T09:03:55;76.00;75.00;67.40
77239;PMS7003;66258;53.170;-2.240;2023-06-10T09:06:23;29.75;26.00;21.25
77239;PMS7003;66258;53.170;-2.240;2023-06-10T09:08:50;53.00;43.50;33.75
77239;PMS7003;66258;53.170;-2.240;2023-06-10T09:11:18;24.80;24.20;18.00
77239;PMS7003;66258;53.170;-2.240;2023-06-10T09:13:45;24.80;24.80;19.80
77239;PMS7003;66258;53.170;-2.240;2023-06-10T09:16:11;21.40;21.40;18.60
77239;PMS7003;66258;53.170;-2.240;2023-06-10T09:18:40;19.40;19.40;15.80
77239;PMS7003;66258;53.170;-2.240;2023-06-10T09:21:07;26.60;26.40;20.60
77239;PMS7003;66258;53.170;-2.240;2023-06-10T09:23:33;23.80;23.80;20.00
77239;PMS7003;66258;53.170;-2.240;2023-06-10T09:26:01;7.00;7.00;4.00
77239;PMS7003;66258;53.170;-2.240;2023-06-10T09:28:28;21.80;21.80;18.00
77239;PMS7003;66258;53.170;-2.240;2023-06-10T09:31:01;18.00;18.00;16.00
77239;PMS7003;66258;53.170;-2.240;2023-06-10T09:33:29;19.00;19.00;16.20
77239;PMS7003;66258;53.170;-2.240;2023-06-10T09:35:59;20.40;20.40;16.00
77239;PMS7003;66258;53.170;-2.240;2023-06-10T09:38:31;22.00;22.00;16.60
77239;PMS7003;66258;53.170;-2.240;2023-06-10T09:41:00;19.80;19.80;17.00
77239;PMS7003;66258;53.170;-2.240;2023-06-10T09:43:38;18.80;18.80;16.20
77239;PMS7003;66258;53.170;-2.240;2023-06-10T09:46:06;27.80;27.40;21.60
77239;PMS7003;66258;53.170;-2.240;2023-06-10T09:48:40;19.00;19.00;14.80
77239;PMS7003;66258;53.170;-2.240;2023-06-10T09:51:10;17.40;17.40;14.00
77239;PMS7003;66258;53.170;-2.240;2023-06-10T09:53:38;21.20;21.20;18.00
77239;PMS7003;66258;53.170;-2.240;2023-06-10T09:56:05;23.40;23.40;18.40
77239;PMS7003;66258;53.170;-2.240;2023-06-10T09:58:36;20.60;20.60;17.20
77239;PMS7003;66258;53.170;-2.240;2023-06-10T10:01:04;23.60;23.60;18.40
77239;PMS7003;66258;53.170;-2.240;2023-06-10T10:03:31;19.40;19.40;17.20
77239;PMS7003;66258;53.170;-2.240;2023-06-10T10:05:58;24.60;24.60;19.80
77239;PMS7003;66258;53.170;-2.240;2023-06-10T10:08:27;28.20;27.80;21.20
77239;PMS7003;66258;53.170;-2.240;2023-06-10T10:10:55;19.80;19.80;15.20
77239;PMS7003;66258;53.170;-2.240;2023-06-10T10:13:23;22.80;22.80;18.80
77239;PMS7003;66258;53.170;-2.240;2023-06-10T10:15:52;16.80;16.80;14.60
77239;PMS7003;66258;53.170;-2.240;2023-06-10T10:18:20;23.60;21.40;17.60
77239;PMS7003;66258;53.170;-2.240;2023-06-10T10:20:53;21.60;21.60;18.00
77239;PMS7003;66258;53.170;-2.240;2023-06-10T10:23:21;22.00;22.00;18.20
77239;PMS7003;66258;53.170;-2.240;2023-06-10T10:25:54;22.40;22.40;17.40
77239;PMS7003;66258;53.170;-2.240;2023-06-10T10:28:21;20.20;20.20;17.00
77239;PMS7003;66258;53.170;-2.240;2023-06-10T10:30:52;20.60;20.60;18.60
77239;PMS7003;66258;53.170;-2.240;2023-06-10T10:33:24;12.00;12.00;9.20
77239;PMS7003;66258;53.170;-2.240;2023-06-10T10:35:57;19.40;19.40;16.00
77239;PMS7003;66258;53.170;-2.240;2023-06-10T10:38:25;20.80;20.80;17.40
77239;PMS7003;66258;53.170;-2.240;2023-06-10T10:40:53;23.40;23.40;19.00
77239;PMS7003;66258;53.170;-2.240;2023-06-10T10:43:22;18.20;18.20;15.80
77239;PMS7003;66258;53.170;-2.240;2023-06-10T10:45:57;20.00;19.60;16.60
77239;PMS7003;66258;53.170;-2.240;2023-06-10T10:48:24;20.20;20.20;16.40
77239;PMS7003;66258;53.170;-2.240;2023-06-10T10:50:55;18.60;18.60;14.00
77239;PMS7003;66258;53.170;-2.240;2023-06-10T10:53:22;19.80;19.80;15.60
77239;PMS7003;66258;53.170;-2.240;2023-06-10T10:55:59;22.20;20.60;17.00
77239;PMS7003;66258;53.170;-2.240;2023-06-10T10:58:25;17.00;17.00;14.60
77239;PMS7003;66258;53.170;-2.240;2023-06-10T11:00:52;19.20;19.20;15.00
77239;PMS7003;66258;53.170;-2.240;2023-06-10T11:03:19;21.00;21.00;16.80
77239;PMS7003;66258;53.170;-2.240;2023-06-10T11:05:47;17.40;17.40;14.40
77239;PMS7003;66258;53.170;-2.240;2023-06-10T11:08:15;20.40;20.40;18.00
77239;PMS7003;66258;53.170;-2.240;2023-06-10T11:11:20;17.60;17.60;15.40
77239;PMS7003;66258;53.170;-2.240;2023-06-10T11:13:59;20.20;20.20;16.00
77239;PMS7003;66258;53.170;-2.240;2023-06-10T11:16:37;19.00;19.00;16.80
77239;PMS7003;66258;53.170;-2.240;2023-06-10T11:19:06;20.40;20.40;15.00
77239;PMS7003;66258;53.170;-2.240;2023-06-10T11:21:34;18.20;18.20;15.00
77239;PMS7003;66258;53.170;-2.240;2023-06-10T11:24:23;17.60;17.60;15.60
77239;PMS7003;66258;53.170;-2.240;2023-06-10T11:26:52;15.00;15.00;12.00
77239;PMS7003;66258;53.170;-2.240;2023-06-10T11:29:18;17.80;17.80;15.00
77239;PMS7003;66258;53.170;-2.240;2023-06-10T11:31:46;17.60;17.60;15.00
77239;PMS7003;66258;53.170;-2.240;2023-06-10T11:34:21;18.60;18.60;15.20
77239;PMS7003;66258;53.170;-2.240;2023-06-10T11:36:48;17.80;17.80;14.60
77239;PMS7003;66258;53.170;-2.240;2023-06-10T11:39:15;17.80;17.80;15.40
77239;PMS7003;66258;53.170;-2.240;2023-06-10T11:41:45;14.00;14.00;11.20
77239;PMS7003;66258;53.170;-2.240;2023-06-10T11:44:13;16.80;16.80;15.00
77239;PMS7003;66258;53.170;-2.240;2023-06-10T11:46:44;19.40;19.40;15.00
77239;PMS7003;66258;53.170;-2.240;2023-06-10T11:49:12;18.60;18.60;17.00
77239;PMS7003;66258;53.170;-2.240;2023-06-10T11:51:39;14.80;14.80;11.40
77239;PMS7003;66258;53.170;-2.240;2023-06-10T11:54:08;16.20;16.20;14.40
77239;PMS7003;66258;53.170;-2.240;2023-06-10T11:56:35;21.20;21.20;18.20
77239;PMS7003;66258;53.170;-2.240;2023-06-10T11:59:03;21.00;21.00;18.20
77239;PMS7003;66258;53.170;-2.240;2023-06-10T12:01:34;15.00;15.00;13.40
77239;PMS7003;66258;53.170;-2.240;2023-06-10T12:04:03;20.40;20.40;15.00
77239;PMS7003;66258;53.170;-2.240;2023-06-10T12:06:37;16.20;16.20;14.00
77239;PMS7003;66258;53.170;-2.240;2023-06-10T12:09:05;21.60;21.60;16.80
77239;PMS7003;66258;53.170;-2.240;2023-06-10T12:11:49;14.80;14.80;13.40
77239;PMS7003;66258;53.170;-2.240;2023-06-10T12:17:19;16.80;16.80;15.20
77239;PMS7003;66258;53.170;-2.240;2023-06-10T12:19:46;15.80;15.80;14.80
77239;PMS7003;66258;53.170;-2.240;2023-06-10T12:22:13;14.40;14.40;12.60
77239;PMS7003;66258;53.170;-2.240;2023-06-10T12:24:43;17.00;17.00;15.00
77239;PMS7003;66258;53.170;-2.240;2023-06-10T12:27:10;16.20;16.20;14.40
77239;PMS7003;66258;53.170;-2.240;2023-06-10T12:29:37;14.80;14.80;12.40
77239;PMS7003;66258;53.170;-2.240;2023-06-10T12:32:04;17.20;17.20;13.60
77239;PMS7003;66258;53.170;-2.240;2023-06-10T12:34:35;15.00;15.00;13.80
77239;PMS7003;66258;53.170;-2.240;2023-06-10T12:37:04;16.60;16.60;14.20
77239;PMS7003;66258;53.170;-2.240;2023-06-10T12:39:32;20.00;20.00;17.40
77239;PMS7003;66258;53.170;-2.240;2023-06-10T12:42:00;15.40;15.40;13.40
77239;PMS7003;66258;53.170;-2.240;2023-06-10T12:44:33;18.00;18.00;16.20
77239;PMS7003;66258;53.170;-2.240;2023-06-10T12:47:06;15.40;15.40;13.00
77239;PMS7003;66258;53.170;-2.240;2023-06-10T12:49:35;14.80;14.80;13.60
77239;PMS7003;66258;53.170;-2.240;2023-06-10T12:52:02;19.60;19.60;15.20
77239;PMS7003;66258;53.170;-2.240;2023-06-10T12:54:30;17.20;17.20;14.60
77239;PMS7003;66258;53.170;-2.240;2023-06-10T12:56:57;15.20;15.20;13.60
77239;PMS7003;66258;53.170;-2.240;2023-06-10T12:59:26;12.80;12.80;11.60
77239;PMS7003;66258;53.170;-2.240;2023-06-10T13:01:54;18.40;18.40;16.80
77239;PMS7003;66258;53.170;-2.240;2023-06-10T13:04:21;15.80;15.80;14.00
77239;PMS7003;66258;53.170;-2.240;2023-06-10T13:06:49;15.20;15.20;14.00
77239;PMS7003;66258;53.170;-2.240;2023-06-10T13:09:16;16.00;16.00;15.00
77239;PMS7003;66258;53.170;-2.240;2023-06-10T13:11:43;12.60;12.60;10.60
77239;PMS7003;66258;53.170;-2.240;2023-06-10T13:14:10;15.60;15.60;14.20